createdAt,value
2023-07-03T00:03:15.035Z,57.84
2023-07-03T00:06:37.991Z,57.73
2023-07-03T00:09:59.653Z,57.86
2023-07-03T00:13:21.317Z,57.74
2023-07-03T00:16:47.741Z,58.01
2023-07-03T00:20:15.625Z,58.04
2023-07-03T00:23:38.506Z,58.06
2023-07-03T00:27:01.135Z,58.32
2023-07-03T00:30:22.725Z,58.59
2023-07-03T00:33:46.862Z,59.02
2023-07-03T00:37:08.591Z,58.50
2023-07-03T00:40:30.403Z,58.58
2023-07-03T00:43:54.500Z,58.52
2023-07-03T00:47:16.333Z,58.68
2023-07-03T00:50:37.975Z,58.72
2023-07-03T00:54:00.203Z,58.76
2023-07-03T00:57:24.424Z,58.93
2023-07-03T01:00:57.086Z,59.36
2023-07-03T01:04:41.084Z,59.29
2023-07-03T01:08:03.670Z,59.23
2023-07-03T01:11:29.049Z,59.72
2023-07-03T01:14:51.398Z,59.91
2023-07-03T01:18:14.066Z,59.96
2023-07-03T01:22:00.368Z,60.76
2023-07-03T01:25:26.657Z,61.17
2023-07-03T01:28:57.125Z,60.52
2023-07-03T01:32:23.400Z,60.60
2023-07-03T01:35:50.337Z,60.28
2023-07-03T01:39:14.938Z,60.33
2023-07-03T01:42:42.537Z,60.61
2023-07-03T01:46:04.214Z,60.56
2023-07-03T01:49:25.872Z,60.89
2023-07-03T01:52:56.207Z,61.20
2023-07-03T01:56:32.725Z,61.13
2023-07-03T01:59:54.803Z,61.47
2023-07-03T02:03:26.431Z,61.69
2023-07-03T02:06:51.479Z,61.52
2023-07-03T02:10:15.576Z,61.62
2023-07-03T02:13:37.193Z,61.38
2023-07-03T02:16:58.864Z,61.32
2023-07-03T02:20:20.562Z,61.10
2023-07-03T02:23:43.193Z,61.38
2023-07-03T02:27:05.308Z,61.35
2023-07-03T02:30:26.958Z,61.33
2023-07-03T02:33:50.999Z,61.23
2023-07-03T02:37:15.301Z,61.68
2023-07-03T02:40:38.417Z,61.38
2023-07-03T02:44:00.626Z,61.78
2023-07-03T02:47:22.348Z,61.88
2023-07-03T02:50:46.238Z,61.71
2023-07-03T02:54:08.039Z,61.84
2023-07-03T02:57:29.991Z,61.63
2023-07-03T03:00:52.234Z,62.06
2023-07-03T03:04:14.944Z,62.13
2023-07-03T03:07:37.434Z,62.21
2023-07-03T03:11:00.285Z,62.15
2023-07-03T03:14:21.977Z,62.07
2023-07-03T03:17:43.707Z,62.44
2023-07-03T03:21:05.473Z,62.79
2023-07-03T03:24:28.178Z,62.81
2023-07-03T03:27:52.093Z,62.85
2023-07-03T03:31:18.596Z,63.31
2023-07-03T03:34:40.225Z,63.26
2023-07-03T03:38:04.428Z,63.04
2023-07-03T03:41:26.430Z,63.19
2023-07-03T03:44:48.201Z,63.26
2023-07-03T03:48:09.957Z,63.30
2023-07-03T03:51:31.693Z,63.05
2023-07-03T03:54:53.456Z,63.01
2023-07-03T03:58:17.325Z,62.89
2023-07-03T04:01:39.634Z,62.97
2023-07-03T04:05:01.404Z,63.25
2023-07-03T04:08:25.566Z,63.06
2023-07-03T04:11:52.041Z,63.04
2023-07-03T04:15:13.614Z,63.39
2023-07-03T04:18:38.494Z,63.79
2023-07-03T04:22:00.190Z,63.90
2023-07-03T04:25:21.854Z,63.49
2023-07-03T04:28:43.561Z,63.19
2023-07-03T04:32:05.613Z,62.94
2023-07-03T04:35:29.985Z,62.98
2023-07-03T04:38:51.622Z,62.80
2023-07-03T04:42:15.557Z,62.49
2023-07-03T04:45:52.317Z,62.32
2023-07-03T04:49:16.520Z,62.39
2023-07-03T04:52:39.997Z,62.24
2023-07-03T04:56:01.681Z,61.97
2023-07-03T04:59:23.472Z,60.66
2023-07-03T05:02:47.102Z,61.29
2023-07-03T05:06:08.906Z,61.11
2023-07-03T05:09:32.822Z,60.31
2023-07-03T05:12:54.489Z,59.95
2023-07-03T05:16:16.224Z,59.14
2023-07-03T05:19:40.360Z,58.58
2023-07-03T05:23:01.952Z,56.18
2023-07-03T05:26:23.638Z,56.86
2023-07-03T05:29:47.559Z,56.87
2023-07-03T05:33:11.929Z,55.45
2023-07-03T05:36:33.669Z,54.32
2023-07-03T05:39:57.589Z,53.41
2023-07-03T05:43:19.787Z,52.98
2023-07-03T05:46:41.686Z,52.89
2023-07-03T05:50:04.283Z,52.81
2023-07-03T05:53:25.962Z,53.63
2023-07-03T05:56:57.566Z,54.44
2023-07-03T06:00:19.504Z,52.94
2023-07-03T06:03:44.116Z,57.21
2023-07-03T06:07:07.220Z,52.18
2023-07-03T06:10:29.080Z,53.15
2023-07-03T06:13:53.002Z,51.56
2023-07-03T06:17:14.620Z,49.44
2023-07-03T06:20:36.301Z,50.68
2023-07-03T06:23:57.880Z,50.59
2023-07-03T06:27:19.595Z,50.93
2023-07-03T06:30:51.283Z,49.72
2023-07-03T06:34:13.634Z,49.10
2023-07-03T06:37:35.518Z,49.77
2023-07-03T06:41:00.713Z,49.24
2023-07-03T06:44:22.344Z,46.69
2023-07-03T06:47:44.158Z,47.98
2023-07-03T06:51:07.973Z,47.78
2023-07-03T06:54:29.641Z,46.50
2023-07-03T06:57:53.959Z,46.72
2023-07-03T07:01:16.758Z,45.96
2023-07-03T07:04:38.411Z,44.96
2023-07-03T07:08:00.049Z,43.91
2023-07-03T07:11:28.370Z,44.06
2023-07-03T07:14:50.097Z,42.65
2023-07-03T07:18:11.796Z,43.97
2023-07-03T07:21:39.506Z,41.81
2023-07-03T07:25:01.334Z,39.22
2023-07-03T07:28:26.177Z,38.79
2023-07-03T07:31:50.014Z,39.70
2023-07-03T07:35:11.679Z,39.23
2023-07-03T07:38:33.247Z,39.16
2023-07-03T07:42:00.360Z,39.26
2023-07-03T07:45:24.144Z,38.29
2023-07-03T07:48:48.723Z,35.71
2023-07-03T07:52:14.870Z,35.05
2023-07-03T07:55:39.447Z,36.50
2023-07-03T07:59:06.038Z,35.98
2023-07-03T08:02:28.128Z,34.58
2023-07-03T08:05:56.185Z,36.44
2023-07-03T08:09:22.480Z,35.24
2023-07-03T08:12:44.335Z,34.77
2023-07-03T08:16:06.332Z,33.91
2023-07-03T08:19:30.434Z,34.18
2023-07-03T08:22:52.091Z,34.25
2023-07-03T08:26:21.752Z,32.60
2023-07-03T08:29:45.637Z,34.38
2023-07-03T08:33:12.077Z,34.36
2023-07-03T08:40:06.348Z,32.76
2023-07-03T08:43:35.272Z,32.91
2023-07-03T08:47:11.463Z,34.42
2023-07-03T08:50:37.988Z,33.84
2023-07-03T08:54:32.533Z,32.69
2023-07-03T08:57:54.263Z,32.50
2023-07-03T09:01:43.367Z,31.50
2023-07-03T09:05:25.597Z,31.54
2023-07-03T09:08:59.317Z,33.72
2023-07-03T09:12:31.559Z,33.00
2023-07-03T09:16:08.128Z,33.72
2023-07-03T09:19:32.922Z,33.48
2023-07-03T09:23:09.410Z,32.17
2023-07-03T09:26:54.907Z,32.74
2023-07-03T09:30:17.317Z,33.54
2023-07-03T09:33:42.814Z,31.78
2023-07-03T09:37:07.433Z,32.66
2023-07-03T09:40:38.628Z,32.44
2023-07-03T09:44:07.270Z,33.49
2023-07-03T09:47:31.420Z,31.99
2023-07-03T09:51:06.405Z,31.86
2023-07-03T09:54:31.140Z,32.17
2023-07-03T09:57:52.969Z,33.23
2023-07-03T10:08:24.287Z,31.85
2023-07-03T10:12:21.954Z,32.44
2023-07-03T10:15:44.060Z,31.78
2023-07-03T10:19:06.024Z,31.78
2023-07-03T10:22:28.087Z,32.24
2023-07-03T10:25:56.214Z,30.81
2023-07-03T10:29:27.439Z,33.56
2023-07-03T10:32:52.416Z,32.75
2023-07-03T10:36:22.083Z,31.54
2023-07-03T10:40:11.587Z,31.20
2023-07-03T10:43:43.798Z,30.36
2023-07-03T10:47:37.713Z,31.61
2023-07-03T10:51:11.370Z,31.34
2023-07-03T10:54:56.346Z,33.69
2023-07-03T10:58:30.315Z,32.76
2023-07-03T11:02:21.121Z,31.50
2023-07-03T11:05:54.366Z,31.63
2023-07-03T11:09:30.510Z,32.03
2023-07-03T11:13:11.775Z,32.51
2023-07-03T11:16:48.430Z,31.99
2023-07-03T11:20:23.475Z,33.62
2023-07-03T11:24:03.600Z,32.12
2023-07-03T11:31:01.124Z,31.65
2023-07-03T11:45:27.696Z,33.21
2023-07-03T11:48:57.924Z,32.23
2023-07-03T11:52:36.488Z,34.13
2023-07-03T11:56:00.381Z,34.06
2023-07-03T11:59:25.818Z,34.46
2023-07-03T12:02:52.386Z,34.65
2023-07-03T12:06:54.836Z,35.00
2023-07-03T12:10:19.625Z,35.33
2023-07-03T12:13:52.503Z,34.83
2023-07-03T12:17:18.217Z,36.47
2023-07-03T12:20:39.954Z,37.22
2023-07-03T12:24:04.066Z,37.25
2023-07-03T12:27:25.716Z,36.11
2023-07-03T12:30:47.406Z,36.54
2023-07-03T12:34:09.248Z,36.87
2023-07-03T12:37:33.411Z,36.90
2023-07-03T12:40:55.073Z,36.65
2023-07-03T12:44:16.803Z,37.16
2023-07-03T12:47:38.554Z,36.69
2023-07-03T12:51:03.103Z,36.84
2023-07-03T12:54:27.176Z,37.90
2023-07-03T12:57:50.087Z,37.75
2023-07-03T13:01:12.814Z,37.24
2023-07-03T13:04:35.617Z,37.13
2023-07-03T13:07:57.310Z,35.89
2023-07-03T13:11:39.776Z,37.61
2023-07-03T13:15:49.774Z,37.00
2023-07-03T13:19:11.725Z,37.87
2023-07-03T13:22:34.161Z,37.96
2023-07-03T13:25:56.939Z,38.51
2023-07-03T13:29:31.973Z,37.89
2023-07-03T13:33:02.268Z,38.42
2023-07-03T13:36:27.823Z,39.00
2023-07-03T13:40:00.554Z,39.49
2023-07-03T13:43:35.510Z,39.48
2023-07-03T13:46:57.708Z,39.16
2023-07-03T13:50:19.314Z,40.12
2023-07-03T13:53:40.982Z,39.04
2023-07-03T13:57:04.869Z,40.45
2023-07-03T14:00:28.289Z,40.45
2023-07-03T14:03:50.109Z,41.86
2023-07-03T14:07:12.142Z,40.90
2023-07-03T14:10:33.841Z,40.54
2023-07-03T14:13:56.740Z,41.29
2023-07-03T14:17:23.587Z,41.00
2023-07-03T14:20:49.898Z,40.71
2023-07-03T14:24:14.017Z,41.10
2023-07-03T14:27:37.307Z,41.27
2023-07-03T14:31:01.422Z,42.05
2023-07-03T14:34:23.085Z,41.54
2023-07-03T14:37:44.727Z,41.12
2023-07-03T14:41:09.444Z,42.29
2023-07-03T14:44:31.178Z,40.83
2023-07-03T14:47:55.106Z,39.67
2023-07-03T14:51:16.724Z,40.66
2023-07-03T14:54:41.413Z,40.84
2023-07-03T14:58:11.380Z,40.99
2023-07-03T15:01:33.378Z,39.83
2023-07-03T15:04:55.103Z,40.88
2023-07-03T15:08:16.842Z,40.59
2023-07-03T15:11:40.649Z,41.09
2023-07-03T15:15:05.365Z,42.01
2023-07-03T15:18:27.112Z,41.13
2023-07-03T15:21:51.101Z,40.78
2023-07-03T15:25:14.792Z,40.30
2023-07-03T15:28:39.434Z,40.55
2023-07-03T15:32:01.388Z,40.71
2023-07-03T15:35:23.114Z,40.64
2023-07-03T15:38:44.923Z,40.92
2023-07-03T15:42:09.026Z,40.45
2023-07-03T15:45:32.846Z,39.80
2023-07-03T15:48:54.496Z,41.25
2023-07-03T15:52:16.113Z,40.72
2023-07-03T15:55:37.708Z,41.05
2023-07-03T15:59:05.122Z,41.48
2023-07-03T16:02:26.889Z,41.36
2023-07-03T16:06:00.639Z,41.56
2023-07-03T16:09:24.788Z,42.17
2023-07-03T16:12:46.404Z,42.76
2023-07-03T16:16:10.301Z,42.73
2023-07-03T16:19:31.910Z,42.60
2023-07-03T16:22:55.898Z,43.25
2023-07-03T16:26:19.972Z,43.49
2023-07-03T16:29:43.582Z,43.17
2023-07-03T16:33:05.337Z,43.98
2023-07-03T16:36:32.028Z,44.57
2023-07-03T16:39:53.665Z,45.05
2023-07-03T16:43:18.314Z,45.56
2023-07-03T16:46:47.220Z,46.02
2023-07-03T16:50:09.163Z,46.31
2023-07-03T16:53:35.791Z,45.91
2023-07-03T16:56:59.824Z,46.44
2023-07-03T17:00:21.717Z,47.34
2023-07-03T17:03:45.933Z,47.27
2023-07-03T17:07:09.995Z,47.55
2023-07-03T17:10:35.909Z,46.99
2023-07-03T17:14:00.384Z,47.25
2023-07-03T17:17:25.048Z,47.26
2023-07-03T17:20:47.314Z,47.61
2023-07-03T17:24:11.205Z,48.06
2023-07-03T17:27:32.835Z,47.49
2023-07-03T17:30:55.202Z,47.99
2023-07-03T17:34:16.830Z,48.14
2023-07-03T17:37:38.490Z,48.16
2023-07-03T17:41:02.880Z,48.58
2023-07-03T17:44:26.781Z,48.82
2023-07-03T17:47:49.183Z,48.97
2023-07-03T17:51:15.542Z,49.40
2023-07-03T17:54:41.964Z,49.70
2023-07-03T17:58:04.171Z,49.83
2023-07-03T18:01:25.775Z,50.36
2023-07-03T18:04:47.418Z,50.40
2023-07-03T18:08:09.231Z,50.68
2023-07-03T18:11:31.035Z,50.92
2023-07-03T18:14:58.703Z,51.32
2023-07-03T18:18:21.017Z,51.51
2023-07-03T18:21:45.321Z,52.07
2023-07-03T18:25:11.791Z,52.42
2023-07-03T18:28:33.455Z,53.20
2023-07-03T18:31:59.857Z,52.98
2023-07-03T18:35:21.469Z,53.07
2023-07-03T18:38:46.965Z,53.54
2023-07-03T18:42:08.787Z,53.95
2023-07-03T18:45:30.386Z,54.29
2023-07-03T18:48:52.026Z,54.75
2023-07-03T18:52:13.689Z,55.16
2023-07-03T18:55:37.527Z,55.29
2023-07-03T18:59:04.072Z,55.47
2023-07-03T19:02:25.696Z,55.69
2023-07-03T19:05:59.343Z,55.85
2023-07-03T19:09:21.038Z,55.98
2023-07-03T19:12:42.815Z,56.15
2023-07-03T19:16:14.527Z,56.45
2023-07-03T19:19:39.231Z,56.42
2023-07-03T19:23:03.735Z,56.45
2023-07-03T19:26:25.355Z,56.28
2023-07-03T19:29:49.389Z,57.83
2023-07-03T19:33:13.135Z,58.96
2023-07-03T19:36:34.892Z,59.28
2023-07-03T19:40:01.060Z,59.38
2023-07-03T19:43:22.959Z,59.88
2023-07-03T19:46:44.662Z,60.05
2023-07-03T19:50:11.673Z,60.56
2023-07-03T19:53:33.458Z,60.66
2023-07-03T19:56:55.118Z,60.46
2023-07-03T20:00:16.895Z,60.00
2023-07-03T20:03:39.775Z,59.30
2023-07-03T20:07:03.982Z,58.60
2023-07-03T20:10:25.715Z,59.54
2023-07-03T20:13:50.593Z,59.19
2023-07-03T20:17:12.421Z,59.14
2023-07-03T20:20:36.641Z,59.10
2023-07-03T20:23:58.288Z,59.07
2023-07-03T20:27:19.901Z,59.52
2023-07-03T20:30:47.606Z,59.96
2023-07-03T20:34:09.373Z,60.01
2023-07-03T20:37:31.073Z,60.19
2023-07-03T20:41:07.593Z,60.36
2023-07-03T20:44:35.792Z,60.20
2023-07-03T20:47:57.478Z,59.94
2023-07-03T20:51:22.989Z,59.80
2023-07-03T20:54:55.180Z,59.77
2023-07-03T20:58:16.820Z,60.27
2023-07-03T21:01:41.530Z,60.51
2023-07-03T21:05:06.005Z,60.27
2023-07-03T21:08:30.679Z,61.03
2023-07-03T21:11:52.522Z,61.48
2023-07-03T21:15:14.824Z,62.32
2023-07-03T21:18:37.772Z,62.99
2023-07-03T21:21:59.421Z,63.37
2023-07-03T21:25:21.030Z,63.16
2023-07-03T21:28:42.843Z,63.35
2023-07-03T21:32:07.817Z,62.94
2023-07-03T21:35:29.571Z,62.69
2023-07-03T21:38:56.241Z,62.66
2023-07-03T21:42:17.957Z,64.23
2023-07-03T21:45:42.362Z,64.75
2023-07-03T21:49:06.280Z,64.39
2023-07-03T21:52:30.191Z,63.61
2023-07-03T21:55:54.336Z,63.91
2023-07-03T21:59:16.293Z,63.41
2023-07-03T22:02:37.991Z,63.96
2023-07-03T22:06:04.884Z,64.12
2023-07-03T22:09:37.652Z,64.30
2023-07-03T22:13:00.497Z,64.34
2023-07-03T22:16:28.086Z,64.34
2023-07-03T22:19:51.403Z,64.00
2023-07-03T22:23:16.389Z,63.77
2023-07-03T22:26:46.346Z,63.45
2023-07-03T22:30:09.175Z,63.76
2023-07-03T22:33:33.593Z,63.37
2023-07-03T22:36:55.330Z,63.73
2023-07-03T22:40:17.219Z,63.84
2023-07-03T22:43:40.440Z,64.12
2023-07-03T22:47:05.603Z,64.12
2023-07-03T22:50:27.979Z,64.47
2023-07-03T22:53:50.207Z,64.56
2023-07-03T22:57:11.847Z,64.72
2023-07-03T23:00:33.847Z,64.72
2023-07-03T23:03:55.601Z,65.25
2023-07-03T23:07:22.673Z,65.83
2023-07-03T23:10:52.376Z,66.21
2023-07-03T23:14:17.005Z,66.59
2023-07-03T23:17:44.406Z,66.85
2023-07-03T23:21:12.610Z,66.56
2023-07-03T23:24:34.476Z,65.32
2023-07-03T23:27:59.056Z,66.48
2023-07-03T23:31:21.048Z,67.42
2023-07-03T23:34:45.045Z,67.58
2023-07-03T23:38:10.925Z,68.29
2023-07-03T23:41:38.059Z,68.05
2023-07-03T23:44:59.748Z,69.33
2023-07-03T23:48:21.969Z,70.64
2023-07-03T23:51:43.827Z,70.02
2023-07-03T23:55:11.518Z,69.21
2023-07-03T23:58:36.888Z,68.94
